Time;durP1;ratioP1;P1;durP2;ratioP2;P2;SDS_P1;SDS_P2;PMS_P1;PMS_P2;Temp;Humidity;BMP_temperature;BMP_pressure;BME280_temperature;BME280_humidity;BME280_pressure;Samples;Min_cycle;Max_cycle;Signal;HPM_P1;HPM_P2
2021/05/08 00:00:00;;;;;;;8.73;4.00;;;5.30;99.90;;;;;;12208818;28;20056;-78
2021/05/08 00:06:02;;;;;;;7.30;4.00;;;5.30;99.90;;;;;;12204719;28;20083;-78
2021/05/08 00:12:04;;;;;;;5.40;4.03;;;5.20;99.90;;;;;;12212751;28;20049;-78
2021/05/08 00:18:05;;;;;;;7.00;4.03;;;5.10;99.90;;;;;;12206045;28;20139;-78
2021/05/08 00:24:07;;;;;;;8.23;4.05;;;5.00;99.90;;;;;;12208334;28;20072;-78
2021/05/08 00:30:11;;;;;;;14.55;5.05;;;5.00;99.90;;;;;;12207707;28;20093;-78
2021/05/08 00:36:12;;;;;;;6.57;4.70;;;4.90;99.90;;;;;;12210385;28;20052;-78
2021/05/08 00:42:14;;;;;;;8.40;4.22;;;4.90;99.90;;;;;;12214856;28;20048;-78
2021/05/08 00:48:15;;;;;;;8.48;4.28;;;5.10;99.90;;;;;;12210635;28;20118;-78
2021/05/08 00:54:16;;;;;;;6.78;3.97;;;5.10;99.90;;;;;;12220921;28;20063;-78
2021/05/08 01:00:19;;;;;;;5.60;4.00;;;5.10;99.90;;;;;;12207851;28;20044;-78
2021/05/08 01:06:20;;;;;;;7.13;4.40;;;5.10;99.90;;;;;;12214473;28;20094;-78
2021/05/08 01:12:21;;;;;;;6.78;4.70;;;5.00;99.90;;;;;;12215837;28;20508;-78
2021/05/08 01:18:24;;;;;;;7.38;4.68;;;4.80;99.90;;;;;;12197617;28;20075;-78
2021/05/08 01:24:25;;;;;;;7.20;5.03;;;4.70;99.90;;;;;;12203325;28;20102;-78
2021/05/08 01:30:33;;;;;;;9.02;5.65;;;4.70;99.90;;;;;;12202156;28;20174;-78
2021/05/08 01:36:35;;;;;;;9.88;5.30;;;4.70;99.90;;;;;;12207815;28;20083;-78
2021/05/08 01:42:38;;;;;;;8.00;5.50;;;4.50;99.90;;;;;;12202073;28;20548;-78
2021/05/08 01:48:39;;;;;;;8.25;5.13;;;4.50;99.90;;;;;;12213560;28;20173;-78
2021/05/08 01:54:40;;;;;;;11.45;5.65;;;4.50;99.90;;;;;;12221117;28;20174;-78
2021/05/08 02:00:44;;;;;;;7.70;5.18;;;4.50;99.90;;;;;;12203991;28;20110;-78
2021/05/08 02:06:52;;;;;;;10.35;5.40;;;4.50;99.90;;;;;;12203277;28;20186;-78
2021/05/08 02:12:53;;;;;;;8.35;5.70;;;4.50;99.90;;;;;;12204347;28;20131;-78
2021/05/08 02:18:54;;;;;;;8.75;5.72;;;4.40;99.90;;;;;;12202743;28;20483;-78
2021/05/08 02:24:56;;;;;;;9.15;5.55;;;4.40;99.90;;;;;;12208909;28;20052;-78
2021/05/08 02:30:57;;;;;;;11.35;6.10;;;4.40;99.90;;;;;;12212747;28;20565;-78
2021/05/08 02:36:58;;;;;;;9.23;6.07;;;4.40;99.90;;;;;;12218595;28;20484;-78
2021/05/08 02:43:01;;;;;;;7.95;6.15;;;4.40;99.90;;;;;;12213220;28;20164;-78
2021/05/08 02:49:02;;;;;;;13.00;7.20;;;4.30;99.90;;;;;;12211754;28;20499;-77
2021/05/08 02:55:05;;;;;;;12.48;7.85;;;4.40;99.90;;;;;;12217835;28;20475;-78
2021/05/08 03:01:06;;;;;;;14.07;8.98;;;4.30;99.90;;;;;;12212361;28;20075;-78
2021/05/08 03:07:08;;;;;;;14.25;8.98;;;4.30;99.90;;;;;;12212197;28;20407;-78
2021/05/08 03:13:09;;;;;;;13.80;9.25;;;4.20;99.90;;;;;;12216066;28;20091;-78
2021/05/08 03:19:11;;;;;;;13.60;9.88;;;4.20;99.90;;;;;;12212746;28;20080;-78
2021/05/08 03:25:12;;;;;;;12.90;9.43;;;4.00;99.90;;;;;;12216948;28;20051;-78
2021/05/08 03:31:13;;;;;;;13.73;10.93;;;3.70;99.90;;;;;;12212661;28;20056;-78
2021/05/08 03:37:15;;;;;;;18.05;13.23;;;3.70;99.90;;;;;;12271222;28;20043;-78
2021/05/08 03:43:16;;;;;;;18.70;13.88;;;3.70;99.90;;;;;;12262029;28;20106;-78
2021/05/08 03:49:17;;;;;;;17.10;13.38;;;3.80;99.90;;;;;;12223468;28;20067;-78
2021/05/08 03:55:19;;;;;;;17.25;13.02;;;3.90;99.90;;;;;;12211948;28;20093;-78
2021/05/08 04:01:20;;;;;;;19.35;13.85;;;3.90;99.90;;;;;;12203805;28;20142;-78
2021/05/08 04:07:22;;;;;;;20.38;13.35;;;3.90;99.90;;;;;;12204749;28;20106;-78
2021/05/08 04:13:24;;;;;;;17.67;14.05;;;4.00;99.90;;;;;;12205711;28;20041;-78
2021/05/08 04:19:26;;;;;;;19.73;14.13;;;4.00;99.90;;;;;;12197412;28;20040;-78
2021/05/08 04:25:27;;;;;;;17.17;13.55;;;3.90;99.90;;;;;;12205598;28;20051;-78
2021/05/08 04:31:29;;;;;;;14.13;11.95;;;4.10;99.90;;;;;;12204014;28;20529;-78
2021/05/08 04:37:30;;;;;;;15.82;12.57;;;4.70;99.90;;;;;;12208340;28;20146;-78
2021/05/08 04:43:31;;;;;;;20.52;14.55;;;4.40;99.90;;;;;;12200972;28;20513;-78
2021/05/08 04:49:33;;;;;;;12.23;9.85;;;4.40;99.90;;;;;;12203121;28;20503;-78
2021/05/08 04:55:34;;;;;;;10.70;8.43;;;4.60;99.90;;;;;;12202287;28;20150;-79
2021/05/08 05:01:35;;;;;;;11.90;9.57;;;5.10;99.90;;;;;;12205083;28;20058;-78
2021/05/08 05:07:38;;;;;;;15.02;11.73;;;6.70;99.90;;;;;;12207179;28;20143;-78
2021/05/08 05:13:40;;;;;;;16.27;11.85;;;6.40;99.90;;;;;;12199849;28;20079;-78
2021/05/08 05:19:41;;;;;;;14.32;12.13;;;6.30;99.90;;;;;;12211497;28;20091;-79
2021/05/08 05:25:42;;;;;;;19.02;12.68;;;6.20;99.90;;;;;;12201445;28;20134;-79
2021/05/08 05:31:43;;;;;;;16.15;11.43;;;6.30;99.90;;;;;;12206769;28;20503;-79
2021/05/08 05:37:48;;;;;;;9.82;6.22;;;7.10;99.90;;;;;;12205929;28;20044;-79
2021/05/08 05:43:49;;;;;;;12.23;7.90;;;8.60;99.90;;;;;;12205811;28;20160;-79
2021/05/08 05:49:52;;;;;;;10.35;8.23;;;9.00;99.90;;;;;;12211524;28;20099;-79
2021/05/08 05:55:53;;;;;;;9.55;7.97;;;9.90;99.90;;;;;;12194965;28;20047;-79
2021/05/08 06:01:55;;;;;;;12.70;9.02;;;9.50;99.90;;;;;;12205333;28;20060;-79
2021/05/08 06:07:56;;;;;;;13.77;9.95;;;9.00;99.90;;;;;;12208188;28;20051;-79
2021/05/08 06:13:57;;;;;;;13.60;10.07;;;8.30;99.90;;;;;;12215780;28;20048;-79
2021/05/08 06:19:59;;;;;;;15.27;10.20;;;8.60;99.90;;;;;;12207381;28;20067;-79
2021/05/08 06:26:00;;;;;;;15.38;10.30;;;8.60;99.90;;;;;;12219424;28;20505;-79
2021/05/08 06:32:03;;;;;;;14.70;10.32;;;8.30;99.90;;;;;;12207894;28;20135;-79
2021/05/08 06:38:05;;;;;;;12.63;9.57;;;8.40;99.90;;;;;;12209383;28;20060;-79
2021/05/08 06:44:07;;;;;;;14.80;10.00;;;9.00;99.90;;;;;;12212078;28;20447;-79
2021/05/08 06:50:09;;;;;;;12.55;8.80;;;9.00;99.90;;;;;;12220527;28;20079;-79
2021/05/08 06:56:10;;;;;;;13.02;8.88;;;9.00;99.90;;;;;;12216698;28;20477;-79
2021/05/08 07:02:12;;;;;;;12.82;8.70;;;9.00;99.90;;;;;;12205237;28;20543;-79
2021/05/08 07:08:13;;;;;;;11.80;8.40;;;9.20;99.90;;;;;;12219126;28;20059;-78
2021/05/08 07:14:15;;;;;;;13.65;8.60;;;9.40;99.90;;;;;;12216661;28;20112;-79
2021/05/08 07:20:17;;;;;;;11.73;7.68;;;9.70;99.90;;;;;;12217730;28;20067;-79
2021/05/08 07:26:20;;;;;;;12.75;7.55;;;10.00;99.90;;;;;;12217816;28;20076;-81
2021/05/08 07:32:21;;;;;;;9.93;6.32;;;10.00;99.90;;;;;;12217047;28;20468;-79
2021/05/08 07:38:23;;;;;;;10.30;6.45;;;10.40;99.90;;;;;;12221206;28;20048;-79
2021/05/08 07:44:24;;;;;;;10.48;6.60;;;10.50;99.90;;;;;;12215370;28;20528;-80
2021/05/08 07:50:28;;;;;;;7.63;4.93;;;10.60;99.90;;;;;;12224027;28;20177;-80
2021/05/08 07:56:35;;;;;;;10.48;6.72;;;10.70;99.90;;;;;;12213895;28;20044;-80
2021/05/08 08:02:37;;;;;;;8.82;5.47;;;11.00;99.90;;;;;;12214243;28;20044;-80
2021/05/08 08:08:39;;;;;;;6.55;4.78;;;11.10;99.90;;;;;;12208442;28;20397;-79
2021/05/08 08:14:40;;;;;;;6.90;4.63;;;11.40;99.90;;;;;;12213529;28;20089;-80
2021/05/08 08:20:42;;;;;;;11.07;5.97;;;11.50;99.90;;;;;;12216464;28;20055;-80
2021/05/08 08:26:43;;;;;;;9.18;4.35;;;11.50;99.90;;;;;;12220823;28;20048;-80
2021/05/08 08:32:45;;;;;;;6.95;4.65;;;11.60;99.90;;;;;;12215474;28;20485;-79
2021/05/08 08:38:46;;;;;;;9.00;5.88;;;11.90;99.90;;;;;;12218120;28;20101;-80
2021/05/08 08:44:48;;;;;;;11.55;7.20;;;12.30;99.90;;;;;;12213500;28;20048;-80
2021/05/08 08:50:49;;;;;;;9.52;6.40;;;12.30;99.90;;;;;;12212346;28;20154;-79
2021/05/08 08:56:51;;;;;;;9.93;5.57;;;12.30;99.90;;;;;;12209707;28;20060;-80
2021/05/08 09:02:52;;;;;;;10.40;6.60;;;12.60;99.90;;;;;;12211490;28;20146;-80
2021/05/08 09:08:57;;;;;;;9.35;6.28;;;12.40;99.90;;;;;;12212540;28;20052;-81
2021/05/08 09:14:58;;;;;;;;;;;12.40;99.90;;;;;;12202674;28;20063;-80
2021/05/08 09:21:00;;;;;;;11.35;6.93;;;12.70;99.90;;;;;;12303157;28;19923;-81
2021/05/08 09:27:02;;;;;;;12.40;6.07;;;12.80;99.90;;;;;;12214312;28;20048;-80
2021/05/08 09:33:04;;;;;;;9.27;5.53;;;13.20;99.90;;;;;;12205526;28;20070;-80
2021/05/08 09:39:26;;;;;;;11.23;6.75;;;13.50;99.90;;;;;;12213522;28;20220;-80
2021/05/08 09:45:27;;;;;;;8.63;5.15;;;13.30;99.90;;;;;;12219371;28;20127;-80
2021/05/08 09:51:29;;;;;;;10.85;5.70;;;13.80;99.90;;;;;;12223761;28;20048;-80
2021/05/08 09:57:30;;;;;;;9.57;5.05;;;13.80;99.90;;;;;;12227172;28;20079;-80
2021/05/08 10:03:35;;;;;;;7.80;5.38;;;13.80;99.90;;;;;;12214005;28;20089;-81
2021/05/08 10:09:56;;;;;;;7.10;4.47;;;13.90;99.90;;;;;;12216483;28;20116;-80
2021/05/08 10:15:59;;;;;;;7.25;4.50;;;14.20;99.90;;;;;;12222120;28;20044;-79
2021/05/08 10:22:02;;;;;;;5.70;3.33;;;14.70;99.90;;;;;;12231651;28;20048;-80
2021/05/08 10:28:05;;;;;;;6.07;3.67;;;14.40;99.90;;;;;;12225090;28;20421;-81
2021/05/08 10:34:06;;;;;;;5.88;4.13;;;14.20;99.90;;;;;;12226974;28;20049;-80
2021/05/08 10:40:09;;;;;;;5.78;3.60;;;14.30;99.90;;;;;;12239024;28;20068;-80
2021/05/08 10:46:12;;;;;;;5.70;3.35;;;14.30;99.90;;;;;;12216058;28;20049;-81
2021/05/08 10:52:13;;;;;;;5.78;2.90;;;14.20;99.90;;;;;;12234433;28;20047;-81
2021/05/08 10:58:17;;;;;;;5.82;3.38;;;14.50;99.90;;;;;;12266244;28;20086;-81
2021/05/08 11:04:19;;;;;;;5.07;3.20;;;14.60;99.90;;;;;;12240168;28;20047;-80
2021/05/08 11:10:32;;;;;;;7.47;3.30;;;14.80;98.80;;;;;;12218330;28;20838;-80
2021/05/08 11:16:35;;;;;;;5.53;3.47;;;14.80;99.90;;;;;;12220885;28;20071;-81
2021/05/08 11:22:36;;;;;;;8.02;3.10;;;14.60;99.90;;;;;;12221276;28;20424;-81
2021/05/08 11:28:37;;;;;;;4.25;2.92;;;14.90;99.90;;;;;;12230361;28;20072;-80
2021/05/08 11:34:55;;;;;;;6.30;2.90;;;15.00;99.90;;;;;;12218183;28;20080;-81
2021/05/08 11:40:56;;;;;;;4.28;2.70;;;15.60;99.90;;;;;;12212138;28;20491;-80
2021/05/08 11:47:02;;;;;;;5.90;2.70;;;15.70;96.80;;;;;;12212218;28;20056;-80
2021/05/08 11:53:03;;;;;;;4.47;1.98;;;16.10;99.90;;;;;;12213764;28;20151;-80
2021/05/08 11:59:06;;;;;;;3.55;1.77;;;16.10;93.70;;;;;;12212763;28;20047;-80
2021/05/08 12:05:08;;;;;;;3.87;2.10;;;16.90;99.90;;;;;;12216324;28;20626;-81
2021/05/08 12:11:18;;;;;;;7.30;2.30;;;16.20;93.70;;;;;;12212644;28;20171;-81
2021/05/08 12:17:19;;;;;;;4.13;1.88;;;15.70;94.30;;;;;;12218344;28;20047;-82
2021/05/08 12:23:24;;;;;;;6.43;2.40;;;15.80;94.10;;;;;;12225325;28;20121;-82
2021/05/08 12:29:25;;;;;;;4.75;2.08;;;15.70;93.60;;;;;;12206720;28;20056;-81
2021/05/08 12:35:27;;;;;;;4.88;2.10;;;15.50;96.90;;;;;;12211722;28;20059;-81
2021/05/08 12:41:31;;;;;;;4.13;2.22;;;15.80;95.80;;;;;;12208641;28;20409;-81
2021/05/08 12:47:41;;;;;;;4.97;2.22;;;15.70;95.60;;;;;;12206370;28;20059;-81
2021/05/08 12:53:42;;;;;;;4.18;2.05;;;15.50;92.70;;;;;;12205309;28;20090;-81
2021/05/08 12:59:56;;;;;;;6.82;2.17;;;15.40;92.20;;;;;;12207060;28;21013;-80
2021/05/08 13:05:58;;;;;;;4.10;2.17;;;15.50;95.30;;;;;;12208282;28;20131;-80
2021/05/08 13:12:11;;;;;;;7.82;1.80;;;15.00;93.90;;;;;;12209583;28;20891;-80
2021/05/08 13:18:13;;;;;;;6.00;1.90;;;15.10;92.70;;;;;;12213534;28;20465;-80
2021/05/08 13:24:22;;;;;;;2.60;1.70;;;14.50;93.70;;;;;;12210568;28;20051;-80
2021/05/08 13:30:26;;;;;;;9.52;3.05;;;14.60;95.00;;;;;;12200578;28;20068;-81
2021/05/08 13:36:27;;;;;;;3.30;1.63;;;14.60;95.10;;;;;;12206750;28;20519;-80
2021/05/08 13:42:29;;;;;;;3.35;1.45;;;14.60;95.70;;;;;;12207438;28;20047;-81
2021/05/08 13:48:30;;;;;;;2.63;1.80;;;14.60;98.80;;;;;;12206864;28;20087;-81
2021/05/08 13:54:31;;;;;;;5.90;2.33;;;14.70;97.80;;;;;;12208720;28;20056;-82
2021/05/08 14:00:33;;;;;;;2.65;1.77;;;15.00;98.70;;;;;;12207654;28;20060;-80
2021/05/08 14:06:34;;;;;;;4.88;1.50;;;14.70;98.70;;;;;;12225387;28;21650;-81
2021/05/08 14:12:36;;;;;;;4.40;1.83;;;14.90;99.90;;;;;;12215861;28;20508;-82
2021/05/08 14:18:38;;;;;;;4.80;2.10;;;14.50;97.40;;;;;;12208078;28;20485;-82
2021/05/08 14:24:39;;;;;;;4.22;2.00;;;14.20;99.90;;;;;;12217740;28;20404;-82
2021/05/08 14:30:41;;;;;;;5.22;2.20;;;14.10;99.90;;;;;;12221584;28;20460;-82
2021/05/08 14:36:42;;;;;;;8.35;2.13;;;13.90;99.90;;;;;;12216020;28;20052;-81
2021/05/08 14:42:43;;;;;;;4.75;1.80;;;13.90;99.90;;;;;;12214371;28;20063;-82
2021/05/08 14:48:44;;;;;;;3.92;2.15;;;13.80;99.90;;;;;;12226005;28;20463;-81
2021/05/08 14:54:46;;;;;;;4.20;1.90;;;13.70;99.90;;;;;;12218367;28;20121;-81
2021/05/08 15:00:48;;;;;;;3.63;1.98;;;13.70;99.90;;;;;;12223892;28;20083;-81
2021/05/08 15:06:49;;;;;;;3.42;1.73;;;13.40;99.90;;;;;;12224896;28;20128;-81
2021/05/08 15:12:50;;;;;;;7.22;1.95;;;13.20;99.90;;;;;;12230192;28;20048;-81
2021/05/08 15:18:53;;;;;;;5.55;1.60;;;13.00;99.90;;;;;;12217279;28;20044;-81
2021/05/08 15:24:54;;;;;;;5.15;1.60;;;12.70;99.90;;;;;;12212429;28;20573;-80
2021/05/08 15:30:55;;;;;;;4.65;1.23;;;12.70;99.90;;;;;;12211161;28;20151;-81
2021/05/08 15:36:57;;;;;;;2.20;1.33;;;12.80;99.90;;;;;;12218269;28;20127;-80
2021/05/08 15:42:58;;;;;;;3.05;1.60;;;12.70;99.90;;;;;;12209752;28;20072;-80
2021/05/08 15:49:00;;;;;;;2.83;1.40;;;12.60;99.90;;;;;;12218154;28;20166;-81
2021/05/08 15:55:01;;;;;;;4.18;1.63;;;12.50;99.90;;;;;;12170583;28;20056;-82
2021/05/08 16:01:03;;;;;;;3.28;1.52;;;12.40;99.90;;;;;;12174094;29;20548;-81
2021/05/08 16:07:04;;;;;;;4.90;1.80;;;12.20;99.90;;;;;;12169298;29;20442;-81
2021/05/08 16:13:06;;;;;;;3.30;1.55;;;12.10;99.90;;;;;;12176700;28;20649;-82
2021/05/08 16:19:07;;;;;;;3.60;1.77;;;12.00;99.90;;;;;;12215666;28;20047;-81
2021/05/08 16:25:10;;;;;;;4.78;1.98;;;12.00;99.90;;;;;;12184619;28;20058;-81
2021/05/08 16:31:11;;;;;;;8.63;2.60;;;11.80;99.90;;;;;;12173235;28;20087;-81
2021/05/08 16:37:13;;;;;;;5.85;3.47;;;11.40;99.90;;;;;;12165811;29;20044;-80
2021/05/08 16:43:15;;;;;;;5.93;3.75;;;11.00;99.90;;;;;;12195134;28;20052;-83
2021/05/08 16:49:16;;;;;;;6.97;3.90;;;10.80;99.90;;;;;;12208678;29;20146;-80
2021/05/08 16:55:18;;;;;;;5.88;3.97;;;10.60;99.90;;;;;;12205941;29;20052;-80
2021/05/08 17:01:19;;;;;;;6.57;4.50;;;10.50;99.90;;;;;;12208996;28;20420;-80
2021/05/08 17:07:21;;;;;;;7.00;4.28;;;10.40;99.90;;;;;;12203968;28;20488;-80
2021/05/08 17:13:23;;;;;;;6.80;4.50;;;10.40;99.90;;;;;;12191030;28;20048;-80
2021/05/08 17:19:24;;;;;;;6.65;4.47;;;10.40;99.90;;;;;;12201420;28;20106;-80
2021/05/08 17:25:25;;;;;;;7.50;4.20;;;10.50;99.90;;;;;;12203502;28;20459;-80
2021/05/08 17:31:27;;;;;;;6.82;3.80;;;10.50;99.90;;;;;;12280784;28;20048;-81
2021/05/08 17:37:29;;;;;;;4.40;3.10;;;10.50;99.90;;;;;;12215414;28;20037;-80
2021/05/08 17:43:30;;;;;;;6.53;3.50;;;10.50;99.90;;;;;;12201274;29;20055;-81
2021/05/08 17:49:33;;;;;;;5.45;3.17;;;10.70;99.90;;;;;;12202364;28;20086;-82
2021/05/08 17:55:34;;;;;;;5.22;2.83;;;10.70;99.90;;;;;;12210268;28;20110;-81
2021/05/08 18:01:36;;;;;;;5.97;2.70;;;10.90;99.90;;;;;;12208804;29;20044;-82
2021/05/08 18:07:37;;;;;;;4.80;2.80;;;11.10;99.90;;;;;;12216480;28;20067;-80
2021/05/08 18:13:39;;;;;;;5.60;2.85;;;11.10;99.90;;;;;;12213676;28;20039;-80
2021/05/08 18:19:40;;;;;;;7.32;2.75;;;11.10;99.90;;;;;;12219090;28;20068;-81
2021/05/08 18:25:41;;;;;;;4.22;2.50;;;11.20;99.90;;;;;;12222859;28;20087;-82
2021/05/08 18:31:43;;;;;;;4.43;2.60;;;11.30;99.90;;;;;;12213046;28;20055;-80
2021/05/08 18:37:45;;;;;;;5.47;2.80;;;11.30;99.90;;;;;;12206828;28;20408;-80
2021/05/08 18:43:46;;;;;;;5.22;2.55;;;11.40;99.90;;;;;;12211823;28;20116;-80
2021/05/08 18:49:48;;;;;;;4.03;2.40;;;11.60;99.90;;;;;;12212375;28;20424;-80
2021/05/08 18:55:49;;;;;;;6.03;2.50;;;11.60;99.90;;;;;;12217788;28;20152;-81
2021/05/08 19:01:50;;;;;;;7.88;3.17;;;11.60;99.90;;;;;;12214814;28;20083;-82
2021/05/08 19:07:52;;;;;;;5.15;2.60;;;11.70;99.90;;;;;;12200768;28;20064;-81
2021/05/08 19:13:53;;;;;;;4.70;2.70;;;11.70;99.90;;;;;;12218510;28;20063;-80
2021/05/08 19:19:55;;;;;;;6.15;2.78;;;12.00;99.90;;;;;;12215219;28;20059;-80
2021/05/08 19:25:56;;;;;;;4.30;2.67;;;12.00;99.90;;;;;;12218538;28;20098;-80
2021/05/08 19:31:57;;;;;;;5.53;2.30;;;12.00;99.90;;;;;;12212562;28;20573;-80
2021/05/08 19:37:59;;;;;;;4.43;2.28;;;12.10;99.90;;;;;;12230583;28;20044;-79
2021/05/08 19:44:05;;;;;;;4.35;2.40;;;12.00;99.90;;;;;;12209442;28;20630;-79
2021/05/08 19:50:09;;;;;;;3.40;2.00;;;12.10;99.90;;;;;;12201164;29;20047;-79
2021/05/08 19:56:10;;;;;;;4.82;2.45;;;12.10;99.90;;;;;;12223826;29;20052;-80
2021/05/08 20:02:12;;;;;;;4.80;2.72;;;12.10;99.90;;;;;;12196878;28;20140;-81
2021/05/08 20:08:13;;;;;;;3.30;2.22;;;12.20;99.90;;;;;;12182457;28;20198;-80
2021/05/08 20:14:14;;;;;;;4.15;2.30;;;12.20;99.90;;;;;;12192280;28;21710;-80
2021/05/08 20:20:16;;;;;;;7.95;2.17;;;12.20;99.90;;;;;;12210267;28;20479;-79
2021/05/08 20:26:17;;;;;;;3.63;1.90;;;12.10;99.90;;;;;;12215740;28;20052;-80
2021/05/08 20:32:20;;;;;;;3.08;1.83;;;12.10;99.90;;;;;;12208286;29;20083;-80
2021/05/08 20:38:26;;;;;;;4.78;1.85;;;12.00;99.90;;;;;;12210715;28;20059;-79
2021/05/08 20:44:27;;;;;;;4.97;1.90;;;12.10;99.90;;;;;;12212600;28;20040;-79
2021/05/08 20:50:29;;;;;;;4.38;1.88;;;12.10;99.90;;;;;;12211031;28;20182;-81
2021/05/08 20:56:30;;;;;;;3.95;2.25;;;12.20;99.90;;;;;;12213511;28;20129;-80
2021/05/08 21:02:31;;;;;;;2.80;1.85;;;12.30;99.90;;;;;;12211723;28;20072;-81
2021/05/08 21:08:35;;;;;;;3.63;1.70;;;12.40;99.90;;;;;;12207082;28;20492;-80
2021/05/08 21:14:37;;;;;;;2.88;1.60;;;12.50;99.90;;;;;;12188319;28;20067;-80
2021/05/08 21:20:53;;;;;;;2.72;1.25;;;12.50;99.90;;;;;;12177811;28;20052;-80
2021/05/08 21:26:54;;;;;;;3.58;1.40;;;12.60;99.90;;;;;;12209994;28;20074;-80
2021/05/08 21:32:55;;;;;;;2.58;1.50;;;12.60;99.90;;;;;;12201851;28;20050;-80
2021/05/08 21:38:57;;;;;;;2.83;1.40;;;12.60;99.90;;;;;;12225060;28;20047;-80
2021/05/08 21:44:58;;;;;;;4.05;1.67;;;12.50;99.90;;;;;;12205735;28;20067;-80
2021/05/08 21:50:59;;;;;;;5.00;1.58;;;12.50;99.90;;;;;;12215372;28;20040;-80
2021/05/08 21:57:01;;;;;;;4.10;1.60;;;12.30;99.90;;;;;;12214428;28;20508;-80
2021/05/08 22:03:02;;;;;;;3.33;1.48;;;12.30;99.90;;;;;;12205967;28;20043;-80
2021/05/08 22:09:04;;;;;;;3.28;1.50;;;12.20;99.90;;;;;;12208873;28;20656;-80
2021/05/08 22:15:06;;;;;;;2.65;1.30;;;12.20;99.90;;;;;;12217501;28;20619;-81
2021/05/08 22:21:07;;;;;;;2.70;1.50;;;12.20;99.90;;;;;;12214026;28;20135;-80
2021/05/08 22:27:09;;;;;;;4.57;1.48;;;12.20;99.90;;;;;;12214688;28;20147;-80
2021/05/08 22:33:10;;;;;;;2.35;1.45;;;12.30;99.90;;;;;;12208339;28;20054;-81
2021/05/08 22:39:12;;;;;;;3.25;1.40;;;12.20;99.90;;;;;;12211434;28;20464;-80
2021/05/08 22:45:14;;;;;;;4.28;1.50;;;12.10;99.90;;;;;;12217567;28;20044;-81
2021/05/08 22:51:15;;;;;;;3.58;1.30;;;12.40;99.90;;;;;;12209762;28;20044;-80
2021/05/08 22:57:17;;;;;;;2.60;1.48;;;12.30;99.90;;;;;;12218974;28;20397;-80
2021/05/08 23:03:18;;;;;;;4.70;1.50;;;12.20;99.90;;;;;;12220431;28;20043;-80
2021/05/08 23:09:19;;;;;;;5.97;1.52;;;12.30;99.90;;;;;;12222617;28;20090;-80
2021/05/08 23:15:21;;;;;;;3.83;1.48;;;12.40;99.90;;;;;;12227171;28;20079;-80
2021/05/08 23:21:22;;;;;;;2.60;1.48;;;12.50;99.90;;;;;;12247253;28;20052;-80
2021/05/08 23:27:24;;;;;;;4.20;1.48;;;12.50;99.90;;;;;;12270448;28;20048;-79
2021/05/08 23:33:25;;;;;;;1.92;1.10;;;12.40;99.90;;;;;;12244236;28;20063;-80
2021/05/08 23:39:26;;;;;;;3.13;1.45;;;12.30;99.90;;;;;;12216433;28;20186;-80
2021/05/08 23:45:27;;;;;;;5.00;1.55;;;12.50;99.90;;;;;;12205265;28;20119;-80
2021/05/08 23:51:30;;;;;;;5.07;1.63;;;12.40;99.90;;;;;;12220028;28;20078;-79
2021/05/08 23:57:31;;;;;;;3.50;1.40;;;12.40;99.90;;;;;;12207324;28;20049;-80
